Tiempo atmosférico en la estación meteorológica de Vallehermoso, Alto Igualero, Santa Cruz de Tenerife (1475 m.)



Fecha
DESCASC
Temp. máxima en grados centígrados (hora)
DESCASC
Temp. mínima en grados centígrados (hora)
DESCASC
Temp. media en grados centígrados
DESCASC
Racha de viento máxima en m/sg (hora)
DESCASC
Velocidad máxima media en intervalos de 10 minutos(hora)
DESCASC
Precipitaciones diarias en mm
DESCASC
Precipitaciones de 00:00 a 06:00 en mm
DESCASC
Precipitaciones de 06:00 a 12:00 en mm
DESCASC
Precipitaciones de 12:00 a 18:00 en mm
DESCASC
Precipitaciones de 18:00 a 24:00 en mm
DESCASC
15-08-2019 26.8 (18:10) 16.8 (00:50) 21.8 10.28 (12:50) 6.94 (10:10) 0 0 0 0 0
14-08-2019 26.6 (16:30) 16.3 (00:00) 21.4 11.67 (00:10) 10 (00:10) 0 0 0 0 0
13-08-2019 18.7 (13:10) 14.3 (00:00) 16.5 20 (01:00) 14.17 (01:10) 0 0 0 0 0
12-08-2019 18.6 (13:40) 11.4 (00:00) 15 20.28 (02:20) 15.56 (00:10) 0 0 0 0 0
11-08-2019 24.3 (14:40) 13.7 (00:00) 19 18.89 (23:59) 14.72 (23:59) 0 0 0 0 0
10-08-2019 26.5 (15:50) 19.1 (00:00) 22.8 12.5 (23:00) 10.56 (23:10) 0 0 0 0 0
09-08-2019 30.2 (17:50) 22.6 (00:00) 26.4 11.94 (16:50) 7.78 (21:00) 0 0 0 0 0
08-08-2019 30.9 (14:50) 20.4 (00:00) 25.6 6.94 (22:20) 6.11 (21:10) 0 0 0 0 0
07-08-2019 26.7 (17:20) 9.3 (00:00) 18 14.17 (00:10) 11.67 (00:20) 0 0 0 0 0
06-08-2019 18.1 (13:10) 11.1 (00:00) 14.6 14.44 (03:40) 11.67 (23:50) 0 0 0 0 0
05-08-2019 16.8 (14:10) 10.9 (00:00) 13.8 17.22 (20:30) 13.89 (19:40) 0.2 0.2 0 0 0
04-08-2019 17.1 (14:10) 10.6 (00:00) 13.9 16.11 (22:20) 12.5 (22:10) 0 0 0 0 0
03-08-2019 19.7 (15:00) 11.4 (00:00) 15.6 13.33 (01:30) 11.11 (23:59) 0 0 0 0 0
02-08-2019 20 (14:50) 14.7 (00:00) 17.3 12.22 (01:30) 10.28 (01:30) 0 0 0 0 0
01-08-2019 20.9 (14:40) 9.9 (00:00) 15.4 15.28 (01:20) 13.89 (01:40) 0 0 0 0 0
31-07-2019 11.9 (23:59) 8.6 (00:00) 10.3 21.39 (01:20) 15 (01:10) 0.4 0.2 0 0.2 0
30-07-2019 13 (12:00) 9.6 (00:00) 11.3 20.28 (03:00) 15.56 (00:50) 1.2 0.4 0.6 0 0.2
29-07-2019 17.3 (15:00) 10.8 (00:00) 14 19.17 (23:59) 14.17 (23:59) 0 0 0 0 0
28-07-2019 19 (15:30) 13.8 (00:00) 16.4 14.72 (18:40) 11.94 (07:40) 0 0 0 0 0
27-07-2019 28.5 (13:40) 13.2 (00:00) 20.8 11.11 (01:10) 10 (00:10) 0 0 0 0 0
26-07-2019 31 (16:10) 13.8 (00:00) 22.4 13.33 (10:10) 11.39 (05:20) 0 0 0 0 0
25-07-2019 23.3 (15:40) 16.4 (00:00) 19.8 12.5 (01:40) 11.11 (02:40) 0 0 0 0 0
24-07-2019 21.7 (13:10) 15.8 (00:00) 18.8 16.11 (01:00) 11.94 (04:30) 0 0 0 0 0
23-07-2019 21.6 (14:50) 15.2 (00:00) 18.4 18.06 (19:50) 13.89 (20:30) 0 0 0 0 0
22-07-2019 25.2 (15:50) 17.7 (00:00) 21.5 11.11 (01:10) 9.72 (02:30) 0 0 0 0 0
21-07-2019 26.2 (16:50) 16.3 (00:00) 21.3 11.67 (23:40) 10.28 (23:10) 0 0 0 0 0
20-07-2019 19.9 (21:00) 10.7 (00:00) 15.3 18.06 (00:10) 14.17 (00:30) 0.4 0.2 0.2 0 0
19-07-2019 13.8 (13:20) 9.1 (00:00) 11.5 20.28 (06:40) 16.11 (07:10) 0.4 0.2 0.2 0 0

Gráficas

Temp. máximas Temp. mínimas Temp. medias Precipitaciones Rachas de viento máximas Velocidades máximas media en intervalos de 10 minutos

Datos horarios

Fecha y hora oficial Temperatura (ºC) Velocidad del viento (km/h) Dirección del viento Racha (km/h) Dirección de racha Precipitación (mm) Presión (hPa) Tendencia (hPa) Humedad (%)
2019-08-17 23:00:00 26.5 40 Nordeste 47 Nordeste 0 -- -- 17
2019-08-17 22:00:00 26 39 Nordeste 50 Este 0 -- -- 16
2019-08-17 21:00:00 26.1 35 Nordeste 45 Nordeste 0 -- -- 15
2019-08-17 20:00:00 26.4 30 Nordeste 36 Nordeste 0 -- -- 16
2019-08-17 19:00:00 27.4 23 Nordeste 29 Nordeste 0 -- -- 17
2019-08-17 18:00:00 29 18 Nordeste 28 Nordeste 0 -- -- 18
2019-08-17 17:00:00 30.2 19 Nordeste 27 Este 0 -- -- 19
2019-08-17 16:00:00 35.8 11 Oeste 22 Oeste 0 -- -- 19
2019-08-17 15:00:00 35.6 13 Oeste 23 Sudoeste 0 -- -- 19
2019-08-17 14:00:00 34.2 7 Nordeste 18 Este 0 -- -- 19
2019-08-17 13:00:00 33 9 Este 24 Este 0 -- -- 20
2019-08-17 12:00:00 33.1 10 Este 21 Este 0 -- -- 21
2019-08-17 11:00:00 32.3 7 Sudeste 14 Este 0 -- -- 21
2019-08-17 10:00:00 30.3 9 Este 27 Nordeste 0 -- -- 22
2019-08-17 09:00:00 28.2 24 Nordeste 27 Nordeste 0 -- -- 21
2019-08-17 08:00:00 27.3 13 Nordeste 25 Nordeste 0 -- -- 23
2019-08-17 07:00:00 26.8 22 Nordeste 26 Nordeste 0 -- -- 23
2019-08-17 06:00:00 26.6 21 Nordeste 30 Nordeste 0 -- -- 23
2019-08-17 05:00:00 26 28 Nordeste 35 Nordeste 0 -- -- 22
2019-08-17 04:00:00 25.8 28 Nordeste 32 Nordeste 0 -- -- 22
2019-08-17 03:00:00 26.4 16 Nordeste 19 Nordeste 0 -- -- 23
2019-08-17 02:00:00 26.5 19 Nordeste 28 Nordeste 0 -- -- 23
2019-08-17 01:00:00 25.6 24 Nordeste 28 Nordeste 0 -- -- 20
2019-08-17 00:00:00 26.3 22 Nordeste 28 Este 0 -- -- 21
2019-08-16 23:00:00 27.2 23 Este 29 Este 0 -- -- 24
2019-08-16 22:00:00 27.1 20 Este 28 Este 0 -- -- 24
2019-08-16 21:00:00 27.4 20 Este 30 Sudeste 0 -- -- 23
2019-08-16 20:00:00 28.5 17 Sudeste 23 Sudeste 0 -- -- 22
2019-08-16 19:00:00 32.2 7 Sur 14 Sur 0 -- -- 20
2019-08-16 18:00:00 32.6 7 Sudeste 19 Sudeste 0 -- -- 20
2019-08-16 17:00:00 33.9 11 Sur 25 Sudeste 0 -- -- 19
2019-08-16 16:00:00 33 15 Sudeste 30 Sudeste 0 -- -- 19
2019-08-16 15:00:00 32.8 17 Sudeste 30 Este 0 -- -- 19
2019-08-16 14:00:00 32.8 18 Sudeste 29 Sudeste 0 -- -- 20
2019-08-16 13:00:00 32.4 18 Sudeste 34 Sudeste 0 -- -- 16
2019-08-16 12:00:00 31.1 23 Este 40 Sudeste 0 -- -- 16
2019-08-16 11:00:00 29.9 31 Este 43 Este 0 -- -- 15
2019-08-16 10:00:00 29.5 27 Este 39 Sudeste 0 -- -- 15
2019-08-16 09:00:00 27 26 Sudeste 32 Sudeste 0 -- -- 17
2019-08-16 08:00:00 25.8 22 Este 26 Este 0 -- -- 15
2019-08-16 07:00:00 25.7 11 Este 20 Este 0 -- -- 14
2019-08-16 06:00:00 25.5 13 Sudeste 22 Este 0 -- -- 14
2019-08-16 05:00:00 24.6 18 Este 21 Este 0 -- -- 17
2019-08-16 04:00:00 24.4 16 Este 18 Este 0 -- -- 18
2019-08-16 03:00:00 24.1 14 Este 17 Este 0 -- -- 19
2019-08-16 02:00:00 24.2 9 Sudeste 20 Sur 0 -- -- 17
2019-08-16 01:00:00 24 11 Este 20 Este 0 -- -- 21
2019-08-16 00:00:00 23.6 11 Sudeste 22 Sudeste 0 -- -- 19
2019-08-15 23:00:00 23.9 17 Sudeste 18 Sudeste 0 -- -- 20
2019-08-15 22:00:00 24.2 10 Sudeste 19 Sudeste 0 -- -- 20
2019-08-15 21:00:00 24 15 Sudeste 17 Sudeste 0 -- -- 20
2019-08-15 20:00:00 25.5 4 Sudeste 11 Sudeste 0 -- -- 17
2019-08-15 19:00:00 26.6 3 Sudeste 15 Nordeste 0 -- -- 22
2019-08-15 18:00:00 26.3 5 Sudeste 18 Este 0 -- -- 27
2019-08-15 17:00:00 25.2 14 Este 21 Este 0 -- -- 35
2019-08-15 16:00:00 25.9 14 Este 23 Nordeste 0 -- -- 31
2019-08-15 15:00:00 25.6 18 Este 26 Este 0 -- -- 28
2019-08-15 14:00:00 24.3 18 Este 35 Este 0 -- -- 36
2019-08-15 13:00:00 23.8 22 Este 37 Nordeste 0 -- -- 28
2019-08-15 12:00:00 23.4 23 Nordeste 36 Nordeste 0 -- -- 27
2019-08-15 11:00:00 22.2 23 Nordeste 35 Nordeste 0 -- -- 21
2019-08-15 10:00:00 21.5 23 Nordeste 31 Nordeste 0 -- -- 20
2019-08-15 09:00:00 21.1 19 Nordeste 23 Nordeste 0 -- -- 21
2019-08-15 08:00:00 19.6 19 Nordeste 22 Nordeste 0 -- -- 19
2019-08-15 07:00:00 19.4 18 Nordeste 23 Nordeste 0 -- -- 20
2019-08-15 06:00:00 17.8 17 Nordeste 21 Nordeste 0 -- -- 17
2019-08-15 05:00:00 20.3 2 Nordeste 8 Nordeste 0 -- -- 31
2019-08-15 04:00:00 20.5 7 Nordeste 10 Nordeste 0 -- -- 33
2019-08-15 03:00:00 19.9 10 Este 14 Este 0 -- -- 36
2019-08-15 02:00:00 18.7 13 Este 23 Nordeste 0 -- -- 29
2019-08-15 01:00:00 17.1 17 Nordeste 24 Nordeste 0 -- -- 20
2019-08-15 00:00:00 18 12 Nordeste 15 Nordeste 0 -- -- 22
2019-08-14 23:00:00 19.1 13 Nordeste 15 Nordeste 0 -- -- 40
2019-08-14 22:00:00 17.1 8 Este 23 Este 0 -- -- 37
2019-08-14 21:00:00 16.7 20 Este 23 Este 0 -- -- 30
2019-08-14 20:00:00 18.8 13 Este 16 Este 0 -- -- 34
2019-08-14 19:00:00 22.1 9 Este 22 Noroeste 0 -- -- 43
2019-08-14 18:00:00 25.2 5 Norte 18 Oeste 0 -- -- 48
2019-08-14 17:00:00 26.6 8 Oeste 20 Oeste 0 -- -- 40
2019-08-14 16:00:00 26.2 7 Oeste 17 Noroeste 0 -- -- 43
2019-08-14 15:00:00 25.7 8 Sudoeste 17 Sudoeste 0 -- -- 36
2019-08-14 14:00:00 23.7 9 Sudoeste 16 Sudoeste 0 -- -- 39
2019-08-14 13:00:00 23.2 12 Sudoeste 19 Sudoeste 0 -- -- 30
2019-08-14 12:00:00 22.1 11 Oeste 18 Oeste 0 -- -- 24
2019-08-14 11:00:00 20.6 10 Oeste 18 Oeste 0 -- -- 23
2019-08-14 10:00:00 19.3 11 Oeste 15 Oeste 0 -- -- 26
2019-08-14 09:00:00 18.6 11 Sudoeste 16 Sudoeste 0 -- -- 35
2019-08-14 08:00:00 17.7 3 Oeste 15 Oeste 0 -- -- 38
2019-08-14 07:00:00 17.2 9 Oeste 14 Noroeste 0 -- -- 36
2019-08-14 06:00:00 17.5 7 Oeste 13 Oeste 0 -- -- 25
2019-08-14 05:00:00 17.5 3 Sur 8 Nordeste 0 -- -- 34
2019-08-14 04:00:00 18 5 Este 14 Nordeste 0 -- -- 25
2019-08-14 03:00:00 17.5 10 Nordeste 28 Norte 0 -- -- 23
2019-08-14 02:00:00 16.8 19 Nordeste 33 Nordeste 0 -- -- 12
2019-08-14 01:00:00 16.4 30 Nordeste 42 Nordeste 0 -- -- 11
2019-08-14 00:00:00 16.9 37 Nordeste 46 Nordeste 0 -- -- 18
2019-08-13 23:00:00 16.2 39 Nordeste 49 Nordeste 0 -- -- 14
2019-08-13 22:00:00 15.5 42 Nordeste 51 Nordeste 0 -- -- 22
2019-08-13 21:00:00 15.7 41 Nordeste 53 Nordeste 0 -- -- 22
2019-08-13 20:00:00 14.7 42 Nordeste 55 Nordeste 0 -- -- 34
2019-08-13 19:00:00 14.5 42 Nordeste 54 Norte 0 -- -- 41
2019-08-13 18:00:00 15.1 40 Nordeste 55 Nordeste 0 -- -- 42
2019-08-13 17:00:00 16.3 37 Nordeste 53 Nordeste 0 -- -- 44
2019-08-13 16:00:00 17.1 37 Nordeste 54 Nordeste 0 -- -- 44
2019-08-13 15:00:00 17.8 36 Nordeste 57 Nordeste 0 -- -- 57
2019-08-13 14:00:00 18.2 38 Nordeste 54 Nordeste 0 -- -- 41
2019-08-13 13:00:00 18.5 37 Nordeste 57 Nordeste 0 -- -- 50
2019-08-13 12:00:00 18.5 39 Nordeste 55 Nordeste 0 -- -- 39
2019-08-13 11:00:00 18.2 42 Nordeste 62 Nordeste 0 -- -- 26
2019-08-13 10:00:00 17.6 42 Nordeste 63 Nordeste 0 -- -- 35
2019-08-13 09:00:00 17.3 45 Nordeste 59 Nordeste 0 -- -- 24
2019-08-13 08:00:00 16.3 44 Nordeste 59 Nordeste 0 -- -- 23
2019-08-13 07:00:00 15.9 45 Nordeste 59 Nordeste 0 -- -- 24
2019-08-13 06:00:00 15.7 44 Nordeste 63 Nordeste 0 -- -- 29
2019-08-13 05:00:00 15.4 48 Nordeste 63 Nordeste 0 -- -- 24
2019-08-13 04:00:00 15.6 46 Nordeste 66 Nordeste 0 -- -- 26
2019-08-13 03:00:00 15.6 49 Nordeste 64 Nordeste 0 -- -- 25
2019-08-13 02:00:00 16.2 49 Nordeste 67 Nordeste 0 -- -- 23
2019-08-13 01:00:00 15.8 51 Nordeste 72 Nordeste 0 -- -- 27
2019-08-13 00:00:00 15.4 51 Nordeste 67 Nordeste 0 -- -- 28
2019-08-12 23:00:00 15.5 49 Nordeste 65 Nordeste 0 -- -- 25
2019-08-12 22:00:00 15.7 47 Nordeste 64 Nordeste 0 -- -- 21
2019-08-12 21:00:00 16.3 47 Nordeste 64 Nordeste 0 -- -- 29
2019-08-12 20:00:00 16.9 49 Nordeste 69 Nordeste 0 -- -- 20
2019-08-12 19:00:00 17.3 46 Nordeste 66 Nordeste 0 -- -- 23
2019-08-12 18:00:00 17.1 44 Nordeste 64 Nordeste 0 -- -- 29
2019-08-12 17:00:00 17.8 41 Nordeste 59 Nordeste 0 -- -- 27
2019-08-12 16:00:00 18.4 40 Nordeste 60 Nordeste 0 -- -- 35
2019-08-12 15:00:00 18 34 Nordeste 55 Nordeste 0 -- -- 42
2019-08-12 14:00:00 18.6 35 Nordeste 58 Nordeste 0 -- -- 36
2019-08-12 13:00:00 17.7 34 Nordeste 59 Nordeste 0 -- -- 51
2019-08-12 12:00:00 15.9 43 Nordeste 61 Nordeste 0 -- -- 63
2019-08-12 11:00:00 14.4 44 Nordeste 61 Nordeste 0 -- -- 81
2019-08-12 10:00:00 14.1 42 Nordeste 60 Nordeste 0 -- -- 80
2019-08-12 09:00:00 13.7 44 Nordeste 62 Nordeste 0 -- -- 76
2019-08-12 08:00:00 11.5 48 Nordeste 63 Este 0 -- -- 100
2019-08-12 07:00:00 11.5 46 Nordeste 70 Nordeste 0 -- -- 95
2019-08-12 06:00:00 11.9 49 Nordeste 66 Nordeste 0 -- -- 82
2019-08-12 05:00:00 12.1 48 Nordeste 66 Nordeste 0 -- -- 90
2019-08-12 04:00:00 12.4 48 Nordeste 67 Nordeste 0 -- -- 84
2019-08-12 03:00:00 13.6 54 Nordeste 73 Nordeste 0 -- -- 69
2019-08-12 02:00:00 12.8 53 Nordeste 71 Nordeste 0 -- -- 71
2019-08-12 01:00:00 13.5 53 Nordeste 69 Nordeste 0 -- -- 57
2019-08-12 00:00:00 16.1 53 Nordeste 68 Nordeste 0 -- -- 39
2019-08-11 23:00:00 16 50 Nordeste 66 Nordeste 0 -- -- 35
2019-08-11 22:00:00 15.8 47 Nordeste 61 Nordeste 0 -- -- 26
2019-08-11 21:00:00 14.3 45 Nordeste 55 Nordeste 0 -- -- 42
2019-08-11 20:00:00 16.2 41 Nordeste 48 Nordeste 0 -- -- 45
2019-08-11 19:00:00 17.9 33 Nordeste 36 Nordeste 0 -- -- 51
2019-08-11 18:00:00 21.5 27 Nordeste 33 Nordeste 0 -- -- 25
2019-08-11 17:00:00 20.3 29 Nordeste 35 Nordeste 0 -- -- 43
2019-08-11 16:00:00 23.5 27 Nordeste 33 Nordeste 0 -- -- 23
2019-08-11 15:00:00 23.6 26 Este 36 Este 0 -- -- 39
2019-08-11 14:00:00 21.7 26 Nordeste 40 Nordeste 0 -- -- 37
2019-08-11 13:00:00 20.1 26 Nordeste 41 Nordeste 0 -- -- 63
2019-08-11 12:00:00 20.1 32 Nordeste 44 Nordeste 0 -- -- 56
2019-08-11 11:00:00 17 33 Nordeste 41 Nordeste 0 -- -- 93
2019-08-11 10:00:00 14.6 35 Nordeste 44 Nordeste 0 -- -- 100
2019-08-11 09:00:00 13.9 39 Nordeste 48 Nordeste 0 -- -- 100
2019-08-11 08:00:00 14.2 38 Nordeste 50 Nordeste 0 -- -- 100
2019-08-11 07:00:00 13.8 39 Nordeste 46 Nordeste 0 -- -- 100
2019-08-11 06:00:00 14 36 Nordeste 47 Nordeste 0 -- -- 100
2019-08-11 05:00:00 15.8 41 Nordeste 45 Nordeste 0 -- -- 70
2019-08-11 04:00:00 17.7 38 Nordeste 45 Nordeste 0 -- -- 49
2019-08-11 03:00:00 18.6 37 Nordeste 49 Nordeste 0 -- -- 47
2019-08-11 02:00:00 18.3 40 Nordeste 50 Nordeste 0 -- -- 51
2019-08-11 01:00:00 18.9 34 Nordeste 45 Nordeste 0 -- -- 50
2019-08-11 00:00:00 19.1 35 Nordeste 44 Nordeste 0 -- -- 49
2019-08-10 23:00:00 20.8 37 Nordeste 45 Nordeste 0 -- -- 22
2019-08-10 22:00:00 20.9 35 Nordeste 42 Nordeste 0 -- -- 22
2019-08-10 21:00:00 21.5 33 Nordeste 41 Nordeste 0 -- -- 21
2019-08-10 20:00:00 21.8 28 Nordeste 39 Norte 0 -- -- 19
2019-08-10 19:00:00 22.9 25 Nordeste 32 Norte 0 -- -- 28
2019-08-10 18:00:00 25.8 14 Norte 24 Norte 0 -- -- 39
2019-08-10 17:00:00 25.9 13 Norte 25 Norte 0 -- -- 45
2019-08-10 16:00:00 26.2 11 Norte 23 Norte 0 -- -- 45
2019-08-10 15:00:00 25.2 15 Norte 27 Norte 0 -- -- 37
2019-08-10 14:00:00 25.1 19 Norte 30 Norte 0 -- -- 47
2019-08-10 13:00:00 25.4 18 Norte 33 Norte 0 -- -- 31
2019-08-10 12:00:00 24.6 22 Norte 33 Norte 0 -- -- 31
2019-08-10 11:00:00 24.1 25 Norte 34 Norte 0 -- -- 36
2019-08-10 10:00:00 23.6 26 Norte 37 Norte 0 -- -- 34
2019-08-10 09:00:00 23.1 31 Norte 38 Norte 0 -- -- 42
2019-08-10 08:00:00 22.9 31 Norte 39 Norte 0 -- -- 41
2019-08-10 07:00:00 22.7 33 Norte 41 Norte 0 -- -- 38
2019-08-10 06:00:00 22.9 32 Norte 41 Norte 0 -- -- 33
2019-08-10 05:00:00 23.1 35 Norte 42 Norte 0 -- -- 26
2019-08-10 04:00:00 23.1 33 Norte 40 Norte 0 -- -- 33
2019-08-10 03:00:00 23.2 27 Norte 32 Norte 0 -- -- 30
2019-08-10 02:00:00 23.7 22 Norte 29 Norte 0 -- -- 20
2019-08-10 01:00:00 23.6 24 Norte 28 Norte 0 -- -- 30
2019-08-10 00:00:00 23.9 22 Norte 28 Norte 0 -- -- 28
2019-08-09 23:00:00 23.9 26 Norte 31 Norte 0 -- -- 30
2019-08-09 22:00:00 23.8 22 Norte 31 Norte 0 -- -- 21
2019-08-09 21:00:00 23.8 28 Norte 33 Noroeste 0 -- -- 16
2019-08-09 20:00:00 25.6 26 Noroeste 33 Noroeste 0 -- -- 21
2019-08-09 19:00:00 26.7 21 Noroeste 36 Noroeste 0 -- -- 16
2019-08-09 18:00:00 29.7 22 Noroeste 36 Oeste 0 -- -- 14
2019-08-09 17:00:00 29.6 25 Oeste 43 Oeste 0 -- -- 17
2019-08-09 16:00:00 29.9 25 Oeste 38 Oeste 0 -- -- 19
2019-08-09 15:00:00 29.8 23 Oeste 34 Oeste 0 -- -- 20
2019-08-09 14:00:00 29.4 22 Oeste 33 Oeste 0 -- -- 25
2019-08-09 13:00:00 29.3 18 Oeste 33 Oeste 0 -- -- 24
2019-08-09 12:00:00 28 22 Oeste 39 Oeste 0 -- -- 23
2019-08-09 11:00:00 26.6 19 Oeste 31 Oeste 0 -- -- 23
2019-08-09 10:00:00 25.3 18 Oeste 24 Oeste 0 -- -- 18
2019-08-09 09:00:00 24 19 Oeste 22 Oeste 0 -- -- 11
2019-08-09 08:00:00 23.3 17 Oeste 22 Oeste 0 -- -- 10
2019-08-09 07:00:00 23.4 19 Oeste 22 Oeste 0 -- -- 11
2019-08-09 06:00:00 23.3 17 Oeste 19 Oeste 0 -- -- 9
2019-08-09 05:00:00 23 13 Oeste 19 Oeste 0 -- -- 8
2019-08-09 04:00:00 22.7 15 Oeste 21 Oeste 0 -- -- 9
2019-08-09 03:00:00 22.9 17 Oeste 20 Oeste 0 -- -- 10
2019-08-09 02:00:00 23.5 15 Oeste 17 Oeste 0 -- -- 10
2019-08-09 01:00:00 23.6 13 Oeste 21 Oeste 0 -- -- 11
2019-08-09 00:00:00 22.9 19 Oeste 23 Oeste 0 -- -- 9
2019-08-08 23:00:00 22.9 20 Sudoeste 25 Sudoeste 0 -- -- 9
2019-08-08 22:00:00 23 22 Oeste 24 Oeste 0 -- -- 9
2019-08-08 21:00:00 23.3 21 Sudoeste 22 Sudoeste 0 -- -- 9
2019-08-08 20:00:00 26.4 16 Sudoeste 23 Oeste 0 -- -- 13
2019-08-08 19:00:00 28.9 15 Oeste 21 Oeste 0 -- -- 23
2019-08-08 18:00:00 29.4 15 Sudoeste 22 Sudoeste 0 -- -- 18
2019-08-08 17:00:00 30.3 13 Sudoeste 21 Sudoeste 0 -- -- 11
2019-08-08 16:00:00 30.2 13 Sudoeste 22 Sudoeste 0 -- -- 20
2019-08-08 15:00:00 30.5 15 Sudoeste 24 Oeste 0 -- -- 12
2019-08-08 14:00:00 29.7 11 Sudoeste 20 Sudoeste 0 -- -- 12
2019-08-08 13:00:00 28.6 10 Sudoeste 20 Sudoeste 0 -- -- 9
2019-08-08 12:00:00 27.7 7 Sur 17 Sur 0 -- -- 14
2019-08-08 11:00:00 26.3 8 Sur 17 Sur 0 -- -- 14
2019-08-08 10:00:00 24.5 8 Sur 17 Sudoeste 0 -- -- 11
2019-08-08 09:00:00 21.9 16 Sudoeste 22 Sudoeste 0 -- -- 10
2019-08-08 08:00:00 21.6 18 Sur 21 Sur 0 -- -- 12
2019-08-08 07:00:00 21.8 12 Sur 16 Sudoeste 0 -- -- 8
2019-08-08 06:00:00 22.7 14 Sudoeste 19 Sudoeste 0 -- -- 8
2019-08-08 05:00:00 22.3 14 Sudoeste 18 Sudoeste 0 -- -- 8
2019-08-08 04:00:00 21.8 17 Sudoeste 18 Sudoeste 0 -- -- 8
2019-08-08 03:00:00 21.1 14 Sur 17 Sur 0 -- -- 13
2019-08-08 02:00:00 20.7 12 Sudeste 17 Sudeste 0 -- -- 11
2019-08-08 01:00:00 21.3 15 Sudeste 18 Sudeste 0 -- -- 9
2019-08-08 00:00:00 21.6 15 Sudeste 17 Sudeste 0 -- -- 9
2019-08-07 23:00:00 21.6 9 Sudeste 12 Sudeste 0 -- -- 8
2019-08-07 22:00:00 21.8 4 Este 5 Sur 0 -- -- 10
2019-08-07 21:00:00 22.3 0 Calma 11 Noroeste 0 -- -- 15
2019-08-07 20:00:00 24.1 4 Oeste 13 Noroeste 0 -- -- 49
2019-08-07 19:00:00 24 7 Oeste 16 Noroeste 0 -- -- 59
2019-08-07 18:00:00 26 7 Oeste 17 Noroeste 0 -- -- 54
2019-08-07 17:00:00 26.4 6 Noroeste 16 Oeste 0 -- -- 48
2019-08-07 16:00:00 26.6 7 Oeste 19 Sudoeste 0 -- -- 49
2019-08-07 15:00:00 25.9 7 Oeste 19 Oeste 0 -- -- 53
2019-08-07 14:00:00 25 5 Noroeste 17 Oeste 0 -- -- 47
2019-08-07 13:00:00 25.2 4 Norte 17 Este 0 -- -- 37
2019-08-07 12:00:00 23.8 6 Nordeste 16 Este 0 -- -- 32
2019-08-07 11:00:00 23.2 10 Este 27 Este 0 -- -- 21
2019-08-07 10:00:00 20.9 23 Este 28 Este 0 -- -- 23
2019-08-07 09:00:00 20.7 14 Sudeste 18 Sudeste 0 -- -- 20
2019-08-07 08:00:00 19.3 12 Sudeste 14 Sudeste 0 -- -- 13
2019-08-07 07:00:00 18.6 4 Noroeste 10 Nordeste 0 -- -- 12
2019-08-07 06:00:00 18.5 4 Norte 12 Nordeste 0 -- -- 15
2019-08-07 05:00:00 16.9 7 Nordeste 19 Nordeste 0 -- -- 21
2019-08-07 04:00:00 9.3 19 Nordeste 33 Nordeste 0 -- -- 100
2019-08-07 03:00:00 10.8 26 Nordeste 37 Nordeste 0 -- -- 100
2019-08-07 02:00:00 11.1 29 Nordeste 45 Nordeste 0 -- -- 100
2019-08-07 01:00:00 11.3 37 Nordeste 51 Nordeste 0 -- -- 100
2019-08-07 00:00:00 11.5 42 Nordeste 50 Nordeste 0 -- -- 100
2019-08-06 23:00:00 11.5 40 Nordeste 47 Nordeste 0 -- -- 100
2019-08-06 22:00:00 11.5 34 Nordeste 41 Nordeste 0 -- -- 100
2019-08-06 21:00:00 15 33 Nordeste 37 Nordeste 0 -- -- 51
2019-08-06 20:00:00 12.9 26 Nordeste 31 Nordeste 0 -- -- 93
2019-08-06 19:00:00 16.3 24 Nordeste 28 Nordeste 0 -- -- 55
2019-08-06 18:00:00 17.3 19 Nordeste 27 Nordeste 0 -- -- 57
2019-08-06 17:00:00 17.7 19 Nordeste 29 Nordeste 0 -- -- 60
2019-08-06 16:00:00 16.3 24 Nordeste 37 Nordeste 0 -- -- 77
2019-08-06 15:00:00 16.1 26 Nordeste 34 Nordeste 0 -- -- 80
2019-08-06 14:00:00 17.7 21 Nordeste 37 Este 0 -- -- 70
2019-08-06 13:00:00 17.9 21 Nordeste 36 Nordeste 0 -- -- 68
2019-08-06 12:00:00 17.2 24 Este 41 Nordeste 0 -- -- 66
2019-08-06 11:00:00 15.1 35 Nordeste 45 Este 0 -- -- 79
2019-08-06 10:00:00 15.1 35 Nordeste 48 Nordeste 0 -- -- 65
2019-08-06 09:00:00 12.7 35 Nordeste 47 Nordeste 0 -- -- 83
2019-08-06 08:00:00 11.8 36 Nordeste 49 Nordeste 0 -- -- 95
2019-08-06 07:00:00 11.9 39 Nordeste 50 Nordeste 0 -- -- 95
2019-08-06 06:00:00 11.4 39 Nordeste 50 Nordeste 0 -- -- 100
2019-08-06 05:00:00 11.5 35 Nordeste 51 Nordeste 0 -- -- 100
2019-08-06 04:00:00 11.4 37 Nordeste 52 Nordeste 0 -- -- 100
2019-08-06 03:00:00 11.5 38 Nordeste 51 Nordeste 0 -- -- 100
2019-08-06 02:00:00 11.7 37 Nordeste 49 Nordeste 0 -- -- 96
2019-08-06 01:00:00 11.9 38 Nordeste 52 Nordeste 0 -- -- 91
2019-08-06 00:00:00 11.9 39 Nordeste 55 Nordeste 0 -- -- 92
2019-08-05 23:00:00 11.6 44 Nordeste 58 Nordeste 0 -- -- 100
2019-08-05 22:00:00 12.2 41 Nordeste 60 Nordeste 0 -- -- 93
2019-08-05 21:00:00 12.4 42 Nordeste 62 Nordeste 0 -- -- 90
2019-08-05 20:00:00 13.7 46 Nordeste 59 Nordeste 0 -- -- 74
2019-08-05 19:00:00 15.2 39 Nordeste 58 Nordeste 0 -- -- 65
2019-08-05 18:00:00 15.2 45 Nordeste 62 Nordeste 0 -- -- 69
2019-08-05 17:00:00 15.7 36 Nordeste 53 Nordeste 0 -- -- 71
2019-08-05 16:00:00 16.5 36 Nordeste 58 Nordeste 0 -- -- 58
2019-08-05 15:00:00 16.5 31 Nordeste 51 Este 0 -- -- 62
2019-08-05 14:00:00 16.6 32 Nordeste 55 Nordeste 0 -- -- 58
2019-08-05 13:00:00 16 37 Nordeste 53 Nordeste 0 -- -- 62
2019-08-05 12:00:00 13.1 38 Nordeste 54 Nordeste 0 -- -- 100
2019-08-05 11:00:00 12.6 36 Nordeste 59 Nordeste 0 -- -- 100
2019-08-05 10:00:00 12.2 39 Nordeste 54 Nordeste 0 -- -- 100
2019-08-05 09:00:00 11.5 36 Nordeste 50 Nordeste 0 -- -- 100
2019-08-05 08:00:00 11.5 38 Nordeste 52 Nordeste 0 -- -- 100
2019-08-05 07:00:00 10.9 42 Nordeste 53 Nordeste 0 -- -- 100
2019-08-05 06:00:00 11 40 Nordeste 50 Nordeste 0.2 -- -- 100
2019-08-05 05:00:00 11.6 37 Nordeste 53 Nordeste 0 -- -- 100
2019-08-05 04:00:00 11.6 40 Nordeste 56 Nordeste 0 -- -- 100
2019-08-05 03:00:00 11.6 42 Nordeste 57 Nordeste 0 -- -- 100
2019-08-05 02:00:00 11.4 42 Nordeste 60 Nordeste 0 -- -- 100
2019-08-05 01:00:00 11.2 48 Nordeste 58 Nordeste 0 -- -- 100
2019-08-05 00:00:00 11.2 39 Nordeste 57 Nordeste 0 -- -- 100
2019-08-04 23:00:00 11.2 44 Nordeste 58 Nordeste 0 -- -- 100
2019-08-04 22:00:00 11.3 42 Nordeste 56 Nordeste 0 -- -- 100
2019-08-04 21:00:00 11.2 40 Nordeste 50 Nordeste 0 -- -- 100
2019-08-04 20:00:00 12.4 37 Nordeste 52 Nordeste 0 -- -- 100
2019-08-04 19:00:00 12.8 37 Nordeste 49 Nordeste 0 -- -- 100
2019-08-04 18:00:00 13.1 33 Nordeste 45 Nordeste 0 -- -- 99
2019-08-04 17:00:00 13.7 36 Nordeste 50 Nordeste 0 -- -- 92
2019-08-04 16:00:00 14.3 36 Nordeste 51 Nordeste 0 -- -- 89
2019-08-04 15:00:00 14.5 35 Nordeste 51 Nordeste 0 -- -- 85
2019-08-04 14:00:00 16.8 18 Nordeste 42 Nordeste 0 -- -- 67
2019-08-04 13:00:00 15.1 30 Nordeste 44 Nordeste 0 -- -- 71
2019-08-04 12:00:00 14.5 30 Nordeste 39 Nordeste 0 -- -- 75
2019-08-04 11:00:00 14.9 26 Nordeste 35 Nordeste 0 -- -- 72
2019-08-04 10:00:00 15.4 26 Nordeste 38 Nordeste 0 -- -- 50
2019-08-04 09:00:00 12.8 34 Nordeste 37 Nordeste 0 -- -- 72
2019-08-04 08:00:00 14 33 Nordeste 37 Nordeste 0 -- -- 49
2019-08-04 07:00:00 12.7 34 Nordeste 40 Nordeste 0 -- -- 56
2019-08-04 06:00:00 13.3 37 Nordeste 42 Nordeste 0 -- -- 37
2019-08-04 05:00:00 12 41 Nordeste 46 Nordeste 0 -- -- 49
2019-08-04 04:00:00 12.5 42 Nordeste 48 Nordeste 0 -- -- 42
2019-08-04 03:00:00 11.9 41 Nordeste 47 Nordeste 0 -- -- 46
2019-08-04 02:00:00 12.5 41 Nordeste 46 Nordeste 0 -- -- 46
2019-08-04 01:00:00 11.7 39 Nordeste 45 Nordeste 0 -- -- 53
2019-08-04 00:00:00 13 40 Nordeste 45 Nordeste 0 -- -- 39
2019-08-03 23:00:00 12.3 38 Nordeste 45 Nordeste 0 -- -- 65
2019-08-03 22:00:00 12 36 Nordeste 45 Nordeste 0 -- -- 59
2019-08-03 21:00:00 12.7 35 Nordeste 40 Nordeste 0 -- -- 67
2019-08-03 20:00:00 13.6 33 Nordeste 41 Nordeste 0 -- -- 60
2019-08-03 19:00:00 14.6 30 Nordeste 39 Nordeste 0 -- -- 64
2019-08-03 18:00:00 15.9 23 Nordeste 32 Nordeste 0 -- -- 63
2019-08-03 17:00:00 17.5 27 Nordeste 34 Nordeste 0 -- -- 55
2019-08-03 16:00:00 18.9 20 Nordeste 31 Nordeste 0 -- -- 61
2019-08-03 15:00:00 19.7 16 Nordeste 25 Nordeste 0 -- -- 59
2019-08-03 14:00:00 18.6 18 Nordeste 28 Nordeste 0 -- -- 59
2019-08-03 13:00:00 19.6 17 Nordeste 30 Este 0 -- -- 55
2019-08-03 12:00:00 18.4 24 Nordeste 38 Nordeste 0 -- -- 52
2019-08-03 11:00:00 18.4 26 Nordeste 40 Nordeste 0 -- -- 45
2019-08-03 10:00:00 17.1 29 Nordeste 38 Nordeste 0 -- -- 48
2019-08-03 09:00:00 16.4 30 Nordeste 39 Nordeste 0 -- -- 45
2019-08-03 08:00:00 15.6 30 Nordeste 37 Nordeste 0 -- -- 58
2019-08-03 07:00:00 14.8 31 Nordeste 37 Nordeste 0 -- -- 63
2019-08-03 06:00:00 15 32 Nordeste 40 Nordeste 0 -- -- 59
2019-08-03 05:00:00 14.6 31 Nordeste 40 Nordeste 0 -- -- 53
2019-08-03 04:00:00 15.1 33 Nordeste 40 Nordeste 0 -- -- 52
2019-08-03 03:00:00 15.6 33 Nordeste 41 Nordeste 0 -- -- 41
2019-08-03 02:00:00 15.8 38 Nordeste 48 Nordeste 0 -- -- 39
2019-08-03 01:00:00 15.7 36 Nordeste 42 Nordeste 0 -- -- 37
2019-08-03 00:00:00 15.7 33 Nordeste 39 Nordeste 0 -- -- 39
2019-08-02 23:00:00 15.7 33 Nordeste 37 Nordeste 0 -- -- 38
2019-08-02 22:00:00 16.3 32 Nordeste 37 Nordeste 0 -- -- 34
2019-08-02 21:00:00 16.3 35 Nordeste 41 Nordeste 0 -- -- 40
2019-08-02 20:00:00 16.9 34 Nordeste 40 Nordeste 0 -- -- 39
2019-08-02 19:00:00 17.9 31 Nordeste 41 Nordeste 0 -- -- 39
2019-08-02 18:00:00 18.6 30 Nordeste 43 Nordeste 0 -- -- 40
2019-08-02 17:00:00 19 30 Nordeste 38 Nordeste 0 -- -- 40
2019-08-02 16:00:00 19.5 26 Nordeste 38 Nordeste 0 -- -- 40
2019-08-02 15:00:00 20 26 Nordeste 33 Este 0 -- -- 42
2019-08-02 14:00:00 19.2 23 Este 38 Este 0 -- -- 44
2019-08-02 13:00:00 19.4 20 Este 30 Este 0 -- -- 46
2019-08-02 12:00:00 19.2 25 Este 33 Este 0 -- -- 42
2019-08-02 11:00:00 19.6 23 Nordeste 35 Nordeste 0 -- -- 37
2019-08-02 10:00:00 17.9 27 Nordeste 32 Nordeste 0 -- -- 35
2019-08-02 09:00:00 17.6 27 Nordeste 31 Nordeste 0 -- -- 33
2019-08-02 08:00:00 16.3 26 Nordeste 32 Nordeste 0 -- -- 35
2019-08-02 07:00:00 15.5 28 Nordeste 39 Nordeste 0 -- -- 36
2019-08-02 06:00:00 15 33 Nordeste 44 Nordeste 0 -- -- 40
2019-08-02 05:00:00 15.2 36 Nordeste 40 Nordeste 0 -- -- 39
2019-08-02 04:00:00 15.5 32 Nordeste 40 Nordeste 0 -- -- 37
2019-08-02 03:00:00 15.5 31 Nordeste 40 Nordeste 0 -- -- 38
2019-08-02 02:00:00 15.5 36 Nordeste 44 Nordeste 0 -- -- 40
2019-08-02 01:00:00 16.3 34 Nordeste 40 Nordeste 0 -- -- 26
2019-08-02 00:00:00 16.4 34 Nordeste 38 Nordeste 0 -- -- 28
2019-08-01 23:00:00 16.4 34 Nordeste 38 Nordeste 0 -- -- 25
2019-08-01 22:00:00 16.2 36 Nordeste 44 Nordeste 0 -- -- 24
2019-08-01 21:00:00 15.5 38 Nordeste 41 Nordeste 0 -- -- 33
2019-08-01 20:00:00 16.7 30 Nordeste 33 Nordeste 0 -- -- 28
2019-08-01 19:00:00 18.1 22 Nordeste 27 Nordeste 0 -- -- 32
2019-08-01 18:00:00 19.4 15 Nordeste 19 Este 0 -- -- 28
2019-08-01 17:00:00 19.2 12 Nordeste 19 Nordeste 0 -- -- 45
2019-08-01 16:00:00 18 10 Este 18 Nordeste 0 -- -- 70
2019-08-01 15:00:00 20.6 4 Este 12 Este 0 -- -- 60
2019-08-01 14:00:00 20.2 4 Nordeste 12 Este 0 -- -- 66
2019-08-01 13:00:00 20.5 6 Nordeste 18 Este 0 -- -- 43
2019-08-01 12:00:00 17.9 15 Este 34 Nordeste 0 -- -- 53
2019-08-01 11:00:00 15.2 28 Nordeste 38 Nordeste 0 -- -- 65
2019-08-01 10:00:00 14.6 34 Nordeste 42 Nordeste 0 -- -- 60
2019-08-01 09:00:00 14.7 37 Nordeste 45 Este 0 -- -- 39
2019-08-01 08:00:00 14.2 38 Nordeste 45 Nordeste 0 -- -- 38
2019-08-01 07:00:00 15.2 37 Nordeste 41 Nordeste 0 -- -- 29
2019-08-01 06:00:00 14.3 38 Nordeste 45 Nordeste 0 -- -- 33
2019-08-01 05:00:00 13.8 40 Nordeste 50 Nordeste 0 -- -- 37
2019-08-01 04:00:00 13.2 45 Nordeste 51 Nordeste 0 -- -- 46
2019-08-01 03:00:00 11.5 45 Nordeste 52 Nordeste 0 -- -- 70
2019-08-01 02:00:00 12.8 47 Nordeste 55 Nordeste 0 -- -- 41
2019-08-01 01:00:00 10.4 40 Nordeste 54 Nordeste 0 -- -- 87
2019-08-01 00:00:00 11.9 46 Nordeste 51 Nordeste 0 -- -- 58
2019-07-31 23:00:00 9.6 44 Nordeste 50 Nordeste 0 -- -- 95
2019-07-31 22:00:00 8.8 46 Nordeste 51 Nordeste 0 -- -- 100
2019-07-31 21:00:00 9.5 41 Nordeste 50 Nordeste 0 -- -- 100
2019-07-31 20:00:00 10.2 37 Nordeste 45 Nordeste 0 -- -- 100
2019-07-31 19:00:00 10.5 33 Nordeste 45 Nordeste 0 -- -- 100
2019-07-31 18:00:00 10.9 35 Nordeste 48 Nordeste 0 -- -- 100
2019-07-31 17:00:00 11.5 39 Nordeste 52 Nordeste 0 -- -- 100
2019-07-31 16:00:00 11.8 34 Nordeste 46 Nordeste 0 -- -- 100
2019-07-31 15:00:00 11.1 36 Nordeste 48 Nordeste 0 -- -- 100
2019-07-31 14:00:00 11 34 Nordeste 48 Nordeste 0 -- -- 100
2019-07-31 13:00:00 11.1 36 Nordeste 58 Nordeste 0.2 -- -- 100
2019-07-31 12:00:00 10.5 42 Nordeste 57 Nordeste 0 -- -- 100
2019-07-31 11:00:00 10.3 41 Nordeste 53 Nordeste 0 -- -- 100
2019-07-31 10:00:00 10 35 Nordeste 50 Nordeste 0 -- -- 100
2019-07-31 09:00:00 9.7 40 Nordeste 58 Nordeste 0 -- -- 100
2019-07-31 08:00:00 9.5 46 Nordeste 60 Nordeste 0 -- -- 100
2019-07-31 07:00:00 8.8 43 Nordeste 57 Nordeste 0 -- -- 100
2019-07-31 06:00:00 9.6 44 Nordeste 60 Nordeste 0 -- -- 100
2019-07-31 05:00:00 9.7 43 Nordeste 63 Nordeste 0.2 -- -- 100
2019-07-31 04:00:00 10.2 46 Nordeste 64 Nordeste 0 -- -- 100
2019-07-31 03:00:00 9.1 49 Nordeste 65 Nordeste 0 -- -- 100
2019-07-31 02:00:00 9.6 51 Nordeste 77 Nordeste 0 -- -- 100
2019-07-31 01:00:00 9.8 52 Nordeste 69 Nordeste 0 -- -- 100
2019-07-31 00:00:00 9.9 48 Nordeste 64 Nordeste 0.2 -- -- 100
2019-07-30 23:00:00 10.6 46 Nordeste 64 Nordeste 0 -- -- 100
2019-07-30 22:00:00 10.5 45 Nordeste 59 Norte 0 -- -- 100
2019-07-30 21:00:00 10.3 43 Nordeste 60 Nordeste 0 -- -- 100
2019-07-30 20:00:00 10 45 Nordeste 58 Nordeste 0 -- -- 100
2019-07-30 19:00:00 11.1 39 Nordeste 55 Nordeste 0 -- -- 100
2019-07-30 18:00:00 11.3 44 Nordeste 55 Nordeste 0 -- -- 100
2019-07-30 17:00:00 12.5 36 Nordeste 48 Nordeste 0 -- -- 100
2019-07-30 16:00:00 12.3 35 Nordeste 46 Nordeste 0 -- -- 100
2019-07-30 15:00:00 12.6 35 Nordeste 46 Nordeste 0 -- -- 100
2019-07-30 14:00:00 12.4 33 Nordeste 45 Nordeste 0 -- -- 100
2019-07-30 13:00:00 12.6 35 Nordeste 54 Nordeste 0 -- -- 100
2019-07-30 12:00:00 13 41 Nordeste 50 Nordeste 0 -- -- 100
2019-07-30 11:00:00 12.6 33 Nordeste 53 Nordeste 0 -- -- 100
2019-07-30 10:00:00 12.1 34 Nordeste 66 Nordeste 0.2 -- -- 100
2019-07-30 09:00:00 12.3 46 Nordeste 68 Nordeste 0.2 -- -- 100
2019-07-30 08:00:00 12.4 46 Nordeste 67 Nordeste 0.2 -- -- 100
2019-07-30 07:00:00 12.4 49 Nordeste 69 Nordeste 0 -- -- 100
2019-07-30 06:00:00 11.5 49 Nordeste 69 Nordeste 0.2 -- -- 100
2019-07-30 05:00:00 11.7 50 Nordeste 68 Nordeste 0 -- -- 100
2019-07-30 04:00:00 11.6 50 Nordeste 66 Nordeste 0 -- -- 100
2019-07-30 03:00:00 11.7 49 Nordeste 73 Nordeste 0 -- -- 100
2019-07-30 02:00:00 11.7 49 Nordeste 68 Nordeste 0.2 -- -- 100
2019-07-30 01:00:00 11.9 50 Nordeste 68 Nordeste 0 -- -- 100
2019-07-30 00:00:00 12 51 Nordeste 69 Nordeste 0 -- -- 100
2019-07-29 23:00:00 12 48 Nordeste 65 Nordeste 0 -- -- 100
2019-07-29 22:00:00 11.2 46 Nordeste 59 Nordeste 0 -- -- 100
2019-07-29 21:00:00 11 43 Nordeste 56 Nordeste 0 -- -- 100
2019-07-29 20:00:00 11.2 42 Nordeste 54 Nordeste 0 -- -- 96
2019-07-29 19:00:00 13.2 40 Nordeste 55 Nordeste 0 -- -- 55
2019-07-29 18:00:00 14.2 40 Nordeste 53 Nordeste 0 -- -- 59
2019-07-29 17:00:00 15.5 36 Nordeste 51 Nordeste 0 -- -- 52
2019-07-29 16:00:00 15.8 36 Nordeste 54 Nordeste 0 -- -- 65
2019-07-29 15:00:00 17.3 33 Nordeste 51 Nordeste 0 -- -- 44
2019-07-29 14:00:00 15.7 40 Nordeste 58 Nordeste 0 -- -- 59
2019-07-29 13:00:00 16.8 34 Nordeste 49 Nordeste 0 -- -- 48
2019-07-29 12:00:00 15.6 41 Nordeste 54 Nordeste 0 -- -- 56
2019-07-29 11:00:00 16 41 Nordeste 54 Nordeste 0 -- -- 47
2019-07-29 10:00:00 16.7 41 Nordeste 51 Nordeste 0 -- -- 29
2019-07-29 09:00:00 16 41 Nordeste 51 Nordeste 0 -- -- 32
2019-07-29 08:00:00 15.8 40 Nordeste 52 Nordeste 0 -- -- 29
2019-07-29 07:00:00 15.8 40 Nordeste 47 Nordeste 0 -- -- 48
2019-07-29 06:00:00 16 36 Nordeste 44 Nordeste 0 -- -- 46
2019-07-29 05:00:00 16.5 32 Nordeste 48 Nordeste 0 -- -- 58
2019-07-29 04:00:00 16.1 36 Nordeste 52 Nordeste 0 -- -- 64
2019-07-29 03:00:00 16.5 42 Nordeste 59 Nordeste 0 -- -- 64
2019-07-29 02:00:00 16.4 42 Nordeste 59 Nordeste 0 -- -- 58
2019-07-29 01:00:00 16.5 42 Nordeste 55 Nordeste 0 -- -- 59
2019-07-29 00:00:00 15.1 40 Nordeste 49 Nordeste 0 -- -- 62
2019-07-28 23:00:00 14 40 Nordeste 50 Nordeste 0 -- -- 85
2019-07-28 22:00:00 14.4 41 Nordeste 51 Nordeste 0 -- -- 70
2019-07-28 21:00:00 15.2 40 Nordeste 52 Nordeste 0 -- -- 71
2019-07-28 20:00:00 15.5 40 Nordeste 51 Nordeste 0 -- -- 72
2019-07-28 19:00:00 16.8 37 Nordeste 53 Nordeste 0 -- -- 71
2019-07-28 18:00:00 17 34 Nordeste 49 Nordeste 0 -- -- 76
2019-07-28 17:00:00 16.9 34 Nordeste 48 Nordeste 0 -- -- 79
2019-07-28 16:00:00 17.8 32 Nordeste 45 Nordeste 0 -- -- 80
2019-07-28 15:00:00 18.9 32 Nordeste 42 Nordeste 0 -- -- 71
2019-07-28 14:00:00 18.3 33 Nordeste 42 Este 0 -- -- 77
2019-07-28 13:00:00 17.8 34 Nordeste 48 Nordeste 0 -- -- 75
2019-07-28 12:00:00 16.3 32 Nordeste 50 Nordeste 0 -- -- 75
2019-07-28 11:00:00 16.5 38 Nordeste 51 Nordeste 0 -- -- 71
2019-07-28 10:00:00 16.6 40 Nordeste 49 Nordeste 0 -- -- 74
2019-07-28 09:00:00 17.3 42 Nordeste 53 Nordeste 0 -- -- 55
2019-07-28 08:00:00 16.7 41 Nordeste 49 Nordeste 0 -- -- 56
2019-07-28 07:00:00 16.1 39 Nordeste 48 Nordeste 0 -- -- 68
2019-07-28 06:00:00 15.8 40 Nordeste 47 Nordeste 0 -- -- 72
2019-07-28 05:00:00 15.5 40 Nordeste 50 Nordeste 0 -- -- 75
2019-07-28 04:00:00 15.4 41 Nordeste 49 Nordeste 0 -- -- 69
2019-07-28 03:00:00 17 37 Nordeste 42 Nordeste 0 -- -- 22
2019-07-28 02:00:00 17.2 33 Nordeste 39 Nordeste 0 -- -- 10
2019-07-28 01:00:00 18.4 31 Nordeste 34 Nordeste 0 -- -- 7
2019-07-28 00:00:00 18.8 27 Nordeste 32 Nordeste 0 -- -- 7
2019-07-27 23:00:00 18.7 28 Nordeste 33 Nordeste 0 -- -- 6
2019-07-27 22:00:00 19.6 21 Nordeste 24 Nordeste 0 -- -- 8
2019-07-26 11:00:00 -- -- -- -- -- -- -- -- --
2019-07-26 10:00:00 20.3 34 Nordeste 48 Nordeste 0 -- -- 46
2019-07-26 09:00:00 19 40 Nordeste 46 Nordeste 0 -- -- 47
2019-07-26 08:00:00 17.2 39 Nordeste 46 Nordeste 0 -- -- 52
2019-07-26 07:00:00 18.5 39 Nordeste 47 Nordeste 0 -- -- 45
2019-07-26 06:00:00 15.5 38 Nordeste 46 Nordeste 0 -- -- 62
2019-07-26 05:00:00 16.9 40 Nordeste 45 Nordeste 0 -- -- 51
2019-07-26 04:00:00 15.6 37 Nordeste 46 Nordeste 0 -- -- 68
2019-07-26 03:00:00 15.9 37 Nordeste 43 Nordeste 0 -- -- 66
2019-07-26 02:00:00 15.7 40 Nordeste 45 Nordeste 0 -- -- 66
2019-07-26 01:00:00 16 39 Nordeste 46 Nordeste 0 -- -- 46
2019-07-26 00:00:00 17.3 35 Nordeste 43 Nordeste 0 -- -- 41
2019-07-25 23:00:00 17.4 36 Nordeste 41 Nordeste 0 -- -- 39
2019-07-25 22:00:00 19.7 31 Nordeste 35 Nordeste 0 -- -- 14
2019-07-25 21:00:00 19.9 27 Nordeste 31 Nordeste 0 -- -- 12
2019-07-25 20:00:00 20.2 26 Nordeste 34 Nordeste 0 -- -- 14
2019-07-25 19:00:00 20.4 29 Nordeste 38 Nordeste 0 -- -- 15
2019-07-25 18:00:00 21.4 27 Nordeste 33 Nordeste 0 -- -- 17
2019-07-25 17:00:00 22.2 22 Nordeste 32 Este 0 -- -- 20
2019-07-25 16:00:00 23.3 19 Nordeste 32 Nordeste 0 -- -- 20
2019-07-25 15:00:00 23.1 19 Nordeste 30 Nordeste 0 -- -- 16
2019-07-25 14:00:00 22.3 22 Nordeste 37 Este 0 -- -- 22
2019-07-25 13:00:00 -- 26 Nordeste 42 Nordeste 0 -- -- --
2019-07-25 12:00:00 21.5 31 Nordeste 42 Nordeste 0 -- -- 21
2019-07-25 11:00:00 20.8 29 Nordeste 42 Nordeste 0 -- -- 22
2019-07-25 10:00:00 20.7 29 Nordeste 42 Nordeste 0 -- -- 19
2019-07-25 09:00:00 19.5 31 Nordeste 39 Nordeste 0 -- -- 17
2019-07-25 08:00:00 18 33 Nordeste 40 Nordeste 0 -- -- 21
2019-07-25 07:00:00 17.6 32 Nordeste 38 Nordeste 0 -- -- 19
2019-07-25 06:00:00 17.3 34 Nordeste 39 Nordeste 0 -- -- 20
2019-07-25 05:00:00 17 34 Nordeste 37 Nordeste 0 -- -- 27
2019-07-25 04:00:00 17.5 35 Nordeste 41 Nordeste 0 -- -- 23
2019-07-25 03:00:00 17 38 Nordeste 44 Nordeste 0 -- -- 29
2019-07-25 02:00:00 17 39 Nordeste 45 Nordeste 0 -- -- 36
2019-07-25 01:00:00 18 37 Nordeste 42 Nordeste 0 -- -- 27
2019-07-25 00:00:00 18.8 37 Nordeste 43 Nordeste 0 -- -- 17
2019-07-24 23:00:00 17 36 Nordeste 39 Nordeste 0 -- -- 37
2019-07-24 22:00:00 17.7 34 Nordeste 39 Nordeste 0 -- -- 30
2019-07-24 21:00:00 17.9 35 Nordeste 38 Nordeste 0 -- -- 28
2019-07-24 20:00:00 20 34 Nordeste 38 Nordeste 0 -- -- 19
2019-07-24 19:00:00 20.1 32 Nordeste 41 Nordeste 0 -- -- 25
2019-07-24 18:00:00 19.9 29 Nordeste 44 Nordeste 0 -- -- 33
2019-07-24 17:00:00 20.1 34 Nordeste 51 Nordeste 0 -- -- 29
2019-07-24 16:00:00 20.9 33 Nordeste 49 Nordeste 0 -- -- 30
2019-07-24 15:00:00 21.7 29 Nordeste 46 Este 0 -- -- 35
2019-07-24 14:00:00 21.3 31 Nordeste 47 Este 0 -- -- 28
2019-07-24 13:00:00 21.4 31 Nordeste 47 Nordeste 0 -- -- 28
2019-07-24 12:00:00 20.7 31 Nordeste 49 Nordeste 0 -- -- 29
2019-07-24 11:00:00 20.2 32 Nordeste 44 Nordeste 0 -- -- 24
2019-07-24 10:00:00 19.5 35 Nordeste 45 Nordeste 0 -- -- 21
2019-07-24 09:00:00 18.4 35 Nordeste 46 Nordeste 0 -- -- 22
2019-07-24 08:00:00 17.8 37 Nordeste 45 Nordeste 0 -- -- 21
2019-07-24 07:00:00 17.3 40 Nordeste 47 Nordeste 0 -- -- 21
2019-07-24 06:00:00 16.5 43 Nordeste 52 Nordeste 0 -- -- 23
2019-07-24 05:00:00 16.3 39 Nordeste 51 Nordeste 0 -- -- 26
2019-07-24 04:00:00 17.3 40 Nordeste 54 Nordeste 0 -- -- 23
2019-07-24 03:00:00 16.8 42 Nordeste 57 Nordeste 0 -- -- 23
2019-07-24 02:00:00 16.1 41 Nordeste 55 Nordeste 0 -- -- 26
2019-07-24 01:00:00 17 41 Nordeste 58 Nordeste 0 -- -- 24
2019-07-24 00:00:00 16.1 40 Nordeste 63 Nordeste 0 -- -- 26
2019-07-23 23:00:00 15.8 46 Nordeste 62 Nordeste 0 -- -- 26
2019-07-23 22:00:00 16.4 50 Nordeste 62 Nordeste 0 -- -- 29
2019-07-23 21:00:00 15.7 49 Nordeste 62 Nordeste 0 -- -- 30
2019-07-23 20:00:00 16.7 46 Nordeste 65 Nordeste 0 -- -- 27
2019-07-23 19:00:00 17.7 46 Nordeste 60 Nordeste 0 -- -- 28
2019-07-23 18:00:00 19.5 38 Nordeste 54 Nordeste 0 -- -- 25
2019-07-23 17:00:00 19.7 37 Nordeste 53 Nordeste 0 -- -- 30
2019-07-23 16:00:00 20.5 36 Nordeste 52 Nordeste 0 -- -- 26
2019-07-23 15:00:00 21.4 32 Nordeste 51 Este 0 -- -- 22
2019-07-23 14:00:00 21.1 37 Nordeste 56 Este 0 -- -- 23
2019-07-23 13:00:00 20.3 41 Nordeste 54 Nordeste 0 -- -- 25
2019-07-23 12:00:00 20 39 Nordeste 54 Nordeste 0 -- -- 20
2019-07-23 11:00:00 19.3 40 Nordeste 53 Nordeste 0 -- -- 19
2019-07-23 10:00:00 18.8 40 Nordeste 51 Nordeste 0 -- -- 15
2019-07-23 09:00:00 18.4 38 Nordeste 50 Nordeste 0 -- -- 14
2019-07-23 08:00:00 18.3 38 Nordeste 49 Nordeste 0 -- -- 18
2019-07-23 07:00:00 17.8 36 Nordeste 46 Nordeste 0 -- -- 19
2019-07-23 06:00:00 18.1 35 Nordeste 42 Nordeste 0 -- -- 15
2019-07-23 05:00:00 18.6 34 Nordeste 40 Nordeste 0 -- -- 9
2019-07-23 04:00:00 18.9 30 Nordeste 39 Nordeste 0 -- -- 11
2019-07-23 03:00:00 19.2 32 Nordeste 37 Nordeste 0 -- -- 11
2019-07-23 02:00:00 19.4 31 Nordeste 34 Nordeste 0 -- -- 10
2019-07-23 01:00:00 19 33 Nordeste 39 Nordeste 0 -- -- 16
2019-07-23 00:00:00 19.2 32 Nordeste 37 Nordeste 0 -- -- 17
2019-07-22 23:00:00 18.8 33 Nordeste 37 Nordeste 0 -- -- 16
2019-07-22 22:00:00 18.7 31 Nordeste 35 Nordeste 0 -- -- 16
2019-07-22 21:00:00 19.1 28 Nordeste 33 Nordeste 0 -- -- 14
2019-07-22 20:00:00 20.2 23 Nordeste 30 Nordeste 0 -- -- 12
2019-07-22 19:00:00 22 13 Nordeste 16 Nordeste 0 -- -- 20
2019-07-22 18:00:00 23 12 Nordeste 19 Nordeste 0 -- -- 25
2019-07-22 17:00:00 24 11 Nordeste 18 Norte 0 -- -- 23
2019-07-22 16:00:00 24.5 10 Nordeste 22 Nordeste 0 -- -- 24
2019-07-22 15:00:00 24.4 14 Nordeste 26 Nordeste 0 -- -- 23
2019-07-22 14:00:00 23.4 16 Nordeste 26 Nordeste 0 -- -- 23
2019-07-22 13:00:00 22.5 17 Nordeste 29 Nordeste 0 -- -- 26
2019-07-22 12:00:00 22 19 Nordeste 31 Nordeste 0 -- -- 32
2019-07-22 11:00:00 21.6 21 Nordeste 27 Nordeste 0 -- -- 26
2019-07-22 10:00:00 21.3 21 Nordeste 27 Nordeste 0 -- -- 27
2019-07-22 09:00:00 20.2 22 Nordeste 27 Nordeste 0 -- -- 28
2019-07-22 08:00:00 19.1 23 Nordeste 26 Nordeste 0 -- -- 29
2019-07-22 07:00:00 18.4 23 Nordeste 27 Nordeste 0 -- -- 30
2019-07-22 06:00:00 18.6 25 Nordeste 31 Nordeste 0 -- -- 29
2019-07-22 05:00:00 18.4 27 Nordeste 32 Nordeste 0 -- -- 29
2019-07-22 04:00:00 18.4 28 Nordeste 34 Nordeste 0 -- -- 29
2019-07-22 03:00:00 18.4 32 Nordeste 39 Nordeste 0 -- -- 30
2019-07-22 02:00:00 17.9 35 Nordeste 40 Nordeste 0 -- -- 31
2019-07-22 01:00:00 17.7 34 Nordeste 39 Nordeste 0 -- -- 33
2019-07-22 00:00:00 18 35 Nordeste 42 Nordeste 0 -- -- 32
2019-07-21 23:00:00 17.6 36 Nordeste 41 Nordeste 0 -- -- 33
2019-07-21 22:00:00 17.6 34 Nordeste 39 Nordeste 0 -- -- 36
2019-07-21 21:00:00 18.4 30 Nordeste 34 Nordeste 0 -- -- 30
2019-07-21 20:00:00 19.9 23 Nordeste 26 Nordeste 0 -- -- 28
2019-07-21 19:00:00 22.3 16 Nordeste 19 Nordeste 0 -- -- 20
2019-07-21 18:00:00 24.7 12 Nordeste 17 Norte 0 -- -- 16
2019-07-21 17:00:00 25.6 8 Noroeste 22 Noroeste 0 -- -- 28
2019-07-21 16:00:00 25.7 13 Oeste 22 Oeste 0 -- -- 47
2019-07-21 15:00:00 25.7 9 Oeste 24 Oeste 0 -- -- 48
2019-07-21 14:00:00 25.5 13 Oeste 21 Oeste 0 -- -- 47
2019-07-21 13:00:00 25.4 9 Oeste 16 Oeste 0 -- -- 40
2019-07-21 12:00:00 24 8 Sudoeste 15 Noroeste 0 -- -- 28
2019-07-21 11:00:00 22.7 6 Oeste 14 Este 0 -- -- 30
2019-07-21 10:00:00 20.8 13 Este 25 Este 0 -- -- 36
2019-07-21 09:00:00 20.1 19 Este 24 Este 0 -- -- 29
2019-07-21 08:00:00 19 19 Este 24 Este 0 -- -- 25
2019-07-21 07:00:00 18.6 16 Este 21 Este 0 -- -- 21
2019-07-21 06:00:00 20 12 Este 17 Este 0 -- -- 15
2019-07-21 05:00:00 19.6 14 Este 17 Este 0 -- -- 19
2019-07-21 04:00:00 19.2 16 Este 24 Sudeste 0 -- -- 19
2019-07-21 03:00:00 20.5 16 Sudeste 19 Sudeste 0 -- -- 13
2019-07-21 02:00:00 20.3 17 Este 31 Este 0 -- -- 13
2019-07-21 01:00:00 16.3 23 Este 28 Este 0 -- -- 53
2019-07-21 00:00:00 16.6 26 Este 37 Este 0 -- -- 30
2019-07-20 23:00:00 12.8 30 Nordeste 37 Nordeste 0 -- -- 79
2019-07-20 22:00:00 16.5 20 Nordeste 28 Nordeste 0 -- -- 37
2019-07-20 21:00:00 19.9 21 Nordeste 32 Nordeste 0 -- -- 13
2019-07-20 20:00:00 16.8 28 Nordeste 33 Nordeste 0 -- -- 44
2019-07-20 19:00:00 14.2 30 Nordeste 37 Nordeste 0 -- -- 73
2019-07-20 18:00:00 13.6 32 Nordeste 40 Nordeste 0 -- -- 86
2019-07-20 17:00:00 14.8 34 Nordeste 44 Nordeste 0 -- -- 81
2019-07-20 16:00:00 15.7 32 Nordeste 45 Nordeste 0 -- -- 75
2019-07-20 15:00:00 16.8 28 Nordeste 41 Este 0 -- -- 68
2019-07-20 14:00:00 15.1 26 Este 45 Nordeste 0 -- -- 91
2019-07-20 13:00:00 13.5 35 Nordeste 45 Nordeste 0 -- -- 100
2019-07-20 12:00:00 12.3 32 Nordeste 44 Nordeste 0 -- -- 100
2019-07-20 11:00:00 12.3 35 Nordeste 47 Nordeste 0 -- -- 100
2019-07-20 10:00:00 12 36 Nordeste 46 Nordeste 0 -- -- 100
2019-07-20 09:00:00 11.8 40 Nordeste 53 Nordeste 0 -- -- 100
2019-07-20 08:00:00 11.4 43 Nordeste 58 Nordeste 0.2 -- -- 100
2019-07-20 07:00:00 11.2 46 Nordeste 56 Nordeste 0 -- -- 100
2019-07-20 06:00:00 11.1 44 Nordeste 62 Nordeste 0 -- -- 100
2019-07-20 05:00:00 10.8 48 Nordeste 58 Nordeste 0.2 -- -- 100
2019-07-20 04:00:00 11 45 Nordeste 64 Nordeste 0 -- -- 100
2019-07-20 03:00:00 11.3 48 Nordeste 64 Nordeste 0 -- -- 100
2019-07-20 02:00:00 11.1 49 Nordeste 62 Nordeste 0 -- -- 100
2019-07-20 01:00:00 11.1 47 Nordeste 65 Nordeste 0 -- -- 100
2019-07-20 00:00:00 11 50 Nordeste 68 Nordeste 0 -- -- 100
2019-07-19 23:00:00 11 49 Nordeste 69 Nordeste 0 -- -- 100
2019-07-19 22:00:00 11 52 Nordeste 72 Nordeste 0 -- -- 100
2019-07-19 21:00:00 11.5 48 Nordeste 68 Nordeste 0 -- -- 100
2019-07-19 20:00:00 12.2 50 Nordeste 63 Nordeste 0 -- -- 93
2019-07-19 19:00:00 11.9 42 Nordeste 59 Nordeste 0 -- -- 100
2019-07-19 18:00:00 12 39 Nordeste 56 Nordeste 0 -- -- 100
2019-07-19 17:00:00 12.7 39 Nordeste 55 Nordeste 0 -- -- 96
2019-07-19 16:00:00 13 37 Nordeste 57 Nordeste 0 -- -- 94
2019-07-19 15:00:00 13.3 41 Nordeste 57 Nordeste 0 -- -- 87
2019-07-19 14:00:00 13.6 39 Nordeste 62 Nordeste 0 -- -- 79
2019-07-19 13:00:00 13.5 42 Nordeste 63 Nordeste 0 -- -- 81
2019-07-19 12:00:00 11.7 50 Nordeste 72 Nordeste 0 -- -- 96
2019-07-19 11:00:00 9.9 49 Nordeste 64 Nordeste 0 -- -- 100
2019-07-19 10:00:00 10.2 44 Nordeste 65 Nordeste 0.2 -- -- 100
2019-07-19 09:00:00 10 49 Nordeste 70 Nordeste 0 -- -- 100
2019-07-19 08:00:00 9.5 52 Nordeste 73 Nordeste 0 -- -- 100
2019-07-19 07:00:00 9.5 57 Nordeste 73 Nordeste 0 -- -- 100
2019-07-19 06:00:00 9.8 52 Nordeste 68 Nordeste 0 -- -- 100
2019-07-19 05:00:00 9.8 52 Nordeste 66 Nordeste 0.2 -- -- 100
2019-07-19 04:00:00 9.8 42 Nordeste 59 Nordeste 0 -- -- 100
2019-07-19 03:00:00 9.1 46 Nordeste 64 Nordeste 0 -- -- 100
2019-07-19 02:00:00 9.3 46 Nordeste 66 Nordeste 0 -- -- 100
2019-07-19 01:00:00 9.5 48 Nordeste 63 Nordeste 0 -- -- 100
2019-07-19 00:00:00 9.7 47 Nordeste 65 Nordeste 0 -- -- 100